createdAt,value
2018-12-16T00:01:56.525Z,94434.17
2018-12-16T00:04:28.373Z,94449.77
2018-12-16T00:07:00.573Z,94459.66
2018-12-16T00:09:32.732Z,94458.14
2018-12-16T00:12:04.667Z,94461.64
2018-12-16T00:14:36.578Z,94465.78
2018-12-16T00:17:09.052Z,94461.94
2018-12-16T00:19:41.872Z,94448.67
2018-12-16T00:22:14.270Z,94452.23
2018-12-16T00:24:46.850Z,94455.15
2018-12-16T00:27:18.827Z,94461.78
2018-12-16T00:29:51.335Z,94456.55
2018-12-16T00:32:23.464Z,94447.83
2018-12-16T00:34:55.501Z,94445.88
2018-12-16T00:37:27.814Z,94444.42
2018-12-16T00:39:59.993Z,94444.34
2018-12-16T00:42:31.701Z,94444.49
2018-12-16T00:45:05.772Z,94454.19
2018-12-16T00:47:37.675Z,94443.00
2018-12-16T00:50:10.396Z,94443.48
2018-12-16T00:52:42.188Z,94436.48
2018-12-16T00:55:14.354Z,94435.84
2018-12-16T00:57:46.596Z,94450.11
2018-12-16T01:00:18.506Z,94451.36
2018-12-16T01:02:50.485Z,94452.17
2018-12-16T01:05:22.664Z,94456.15
2018-12-16T01:07:55.056Z,94460.86
2018-12-16T01:10:27.192Z,94459.00
2018-12-16T01:12:59.237Z,94444.23
2018-12-16T01:15:31.399Z,94442.16
2018-12-16T01:18:03.182Z,94445.94
2018-12-16T01:20:35.294Z,94445.53
2018-12-16T01:23:08.266Z,94449.09
2018-12-16T01:25:39.957Z,94425.78
2018-12-16T01:28:12.054Z,94425.82
2018-12-16T01:30:43.727Z,94414.19
2018-12-16T01:33:15.911Z,94418.23
2018-12-16T01:35:48.316Z,94410.86
2018-12-16T01:38:20.116Z,94408.46
2018-12-16T01:40:52.359Z,94402.02
2018-12-16T01:43:24.495Z,94412.31
2018-12-16T01:45:56.411Z,94414.54
2018-12-16T01:48:28.308Z,94404.78
2018-12-16T01:51:00.244Z,94406.07
2018-12-16T01:53:32.269Z,94407.98
2018-12-16T01:56:04.174Z,94401.20
2018-12-16T01:58:36.559Z,94398.37
2018-12-16T02:01:08.576Z,94396.63
2018-12-16T02:03:40.675Z,94397.56
2018-12-16T02:06:12.887Z,94392.73
2018-12-16T02:08:44.800Z,94380.73
2018-12-16T02:11:17.016Z,94378.74
2018-12-16T02:13:48.926Z,94377.94
2018-12-16T02:16:21.725Z,94382.91
2018-12-16T02:18:54.922Z,94378.37
2018-12-16T02:21:27.144Z,94372.50
2018-12-16T02:23:58.938Z,94376.22
2018-12-16T02:26:31.059Z,94380.45
2018-12-16T02:29:03.164Z,94368.12
2018-12-16T02:31:35.288Z,94368.68
2018-12-16T02:34:07.348Z,94364.58
2018-12-16T02:36:39.195Z,94369.08
2018-12-16T02:39:11.330Z,94370.75
2018-12-16T02:41:43.518Z,94370.31
2018-12-16T02:44:15.593Z,94363.91
2018-12-16T02:46:48.250Z,94368.36
2018-12-16T02:49:20.152Z,94361.53
2018-12-16T02:51:52.484Z,94360.37
2018-12-16T02:54:24.567Z,94364.35
2018-12-16T02:56:56.756Z,94357.41
2018-12-16T02:59:28.708Z,94349.95
2018-12-16T03:02:00.744Z,94347.64
2018-12-16T03:04:33.532Z,94347.39
2018-12-16T03:07:05.297Z,94352.34
2018-12-16T03:09:37.245Z,94356.03
2018-12-16T03:12:09.418Z,94356.63
2018-12-16T03:14:41.817Z,94354.41
2018-12-16T03:17:14.233Z,94351.40
2018-12-16T03:19:46.232Z,94357.80
2018-12-16T03:22:18.139Z,94359.30
2018-12-16T03:24:50.169Z,94349.88
2018-12-16T03:27:22.104Z,94351.91
2018-12-16T03:29:54.139Z,94344.39
2018-12-16T03:32:27.022Z,94351.88
2018-12-16T03:34:59.070Z,94349.50
2018-12-16T03:37:31.105Z,94352.97
2018-12-16T03:40:03.580Z,94350.36
2018-12-16T03:42:35.595Z,94350.11
2018-12-16T03:45:07.918Z,94352.05
2018-12-16T03:47:39.846Z,94354.41
2018-12-16T03:50:12.404Z,94356.19
2018-12-16T03:52:45.412Z,94362.69
2018-12-16T03:55:17.447Z,94361.95
2018-12-16T03:57:49.397Z,94360.25
2018-12-16T04:00:22.529Z,94371.67
2018-12-16T04:02:54.561Z,94379.44
2018-12-16T04:05:26.467Z,94378.30
2018-12-16T04:07:58.594Z,94379.07
2018-12-16T04:10:31.269Z,94383.50
2018-12-16T04:13:03.293Z,94381.59
2018-12-16T04:15:35.713Z,94384.09
2018-12-16T04:18:07.559Z,94382.92
2018-12-16T04:20:39.455Z,94381.38
2018-12-16T04:23:12.323Z,94381.34
2018-12-16T04:25:44.209Z,94380.23
2018-12-16T04:28:16.281Z,94384.73
2018-12-16T04:30:48.440Z,94380.72
2018-12-16T04:33:20.244Z,94379.83
2018-12-16T04:35:52.101Z,94382.83
2018-12-16T04:38:24.368Z,94389.00
2018-12-16T04:40:56.270Z,94394.92
2018-12-16T04:43:28.468Z,94396.30
2018-12-16T04:46:00.249Z,94399.67
2018-12-16T04:48:32.370Z,94393.02
2018-12-16T04:51:04.223Z,94403.02
2018-12-16T04:53:37.145Z,94397.84
2018-12-16T04:56:09.352Z,94408.13
2018-12-16T04:58:42.227Z,94410.44
2018-12-16T05:01:14.919Z,94414.87
2018-12-16T05:03:46.607Z,94426.58
2018-12-16T05:06:19.642Z,94431.33
2018-12-16T05:08:51.767Z,94419.77
2018-12-16T05:11:23.644Z,94423.39
2018-12-16T05:13:56.343Z,94399.14
2018-12-16T05:16:27.862Z,94414.13
2018-12-16T05:19:00.095Z,94427.18
2018-12-16T05:21:32.002Z,94425.59
2018-12-16T05:24:03.723Z,94421.41
2018-12-16T05:26:35.728Z,94427.53
2018-12-16T05:29:07.992Z,94428.33
2018-12-16T05:31:39.946Z,94427.98
2018-12-16T05:34:11.779Z,94431.39
2018-12-16T05:36:43.785Z,94427.91
2018-12-16T05:39:16.111Z,94432.02
2018-12-16T05:41:48.508Z,94438.06
2018-12-16T05:44:20.292Z,94436.53
2018-12-16T05:46:52.890Z,94430.94
2018-12-16T05:49:25.874Z,94435.12
2018-12-16T05:51:57.675Z,94439.23
2018-12-16T05:54:29.726Z,94446.36
2018-12-16T05:57:02.075Z,94446.69
2018-12-16T05:59:33.965Z,94445.41
2018-12-16T06:02:06.306Z,94447.13
2018-12-16T06:04:38.414Z,94447.02
2018-12-16T06:07:10.473Z,94449.27
2018-12-16T06:09:42.301Z,94443.16
2018-12-16T06:12:14.528Z,94445.33
2018-12-16T06:14:46.403Z,94453.19
2018-12-16T06:17:19.250Z,94462.50
2018-12-16T06:19:51.335Z,94465.84
2018-12-16T06:22:23.338Z,94473.05
2018-12-16T06:24:55.521Z,94488.32
2018-12-16T06:27:28.346Z,94489.91
2018-12-16T06:30:01.781Z,94473.75
2018-12-16T06:32:33.904Z,94473.22
2018-12-16T06:35:06.189Z,94469.66
2018-12-16T06:37:38.696Z,94481.95
2018-12-16T06:40:11.990Z,94475.63
2018-12-16T06:42:44.861Z,94477.58
2018-12-16T06:45:17.348Z,94498.87
2018-12-16T06:47:48.984Z,94499.67
2018-12-16T06:50:21.908Z,94503.31
2018-12-16T06:52:54.122Z,94500.89
2018-12-16T06:55:26.719Z,94516.41
2018-12-16T06:57:59.099Z,94516.01
2018-12-16T07:00:30.918Z,94499.73
2018-12-16T07:03:03.095Z,94504.79
2018-12-16T07:05:35.734Z,94507.23
2018-12-16T07:08:08.717Z,94513.16
2018-12-16T07:10:41.135Z,94527.66
2018-12-16T07:13:13.328Z,94510.16
2018-12-16T07:15:45.472Z,94527.58
2018-12-16T07:18:17.528Z,94532.91
2018-12-16T07:20:49.503Z,94514.97
2018-12-16T07:23:21.581Z,94523.44
2018-12-16T07:25:53.488Z,94513.18
2018-12-16T07:28:25.861Z,94527.42
2018-12-16T07:30:58.067Z,94527.58
2018-12-16T07:33:30.747Z,94513.10
2018-12-16T07:36:02.866Z,94510.70
2018-12-16T07:38:35.026Z,94527.95
2018-12-16T07:41:07.218Z,94532.52
2018-12-16T07:43:39.436Z,94558.41
2018-12-16T07:46:11.431Z,94566.22
2018-12-16T07:48:44.082Z,94573.31
2018-12-16T07:51:16.114Z,94579.79
2018-12-16T07:53:48.497Z,94580.83
2018-12-16T07:56:20.790Z,94577.30
2018-12-16T07:58:52.962Z,94599.06
2018-12-16T08:01:25.112Z,94595.77
2018-12-16T08:03:57.191Z,94602.36
2018-12-16T08:06:29.320Z,94605.88
2018-12-16T08:09:01.916Z,94613.48
2018-12-16T08:11:34.957Z,94612.50
2018-12-16T08:14:08.085Z,94613.08
2018-12-16T08:16:41.029Z,94617.59
2018-12-16T08:19:14.318Z,94623.22
2018-12-16T08:21:46.788Z,94628.77
2018-12-16T08:24:23.033Z,94636.19
2018-12-16T08:26:54.686Z,94651.88
2018-12-16T08:29:26.901Z,94659.29
2018-12-16T08:31:59.906Z,94674.79
2018-12-16T08:34:32.806Z,94684.41
2018-12-16T08:37:05.461Z,94681.08
2018-12-16T08:39:37.697Z,94688.22
2018-12-16T08:42:09.766Z,94700.34
2018-12-16T08:44:41.979Z,94708.17
2018-12-16T08:47:14.384Z,94727.13
2018-12-16T08:49:46.792Z,94745.47
2018-12-16T08:52:19.311Z,94758.34
2018-12-16T08:54:51.676Z,94752.94
2018-12-16T08:57:24.262Z,94752.38
2018-12-16T08:59:57.674Z,94757.54
2018-12-16T09:02:30.319Z,94760.94
2018-12-16T09:05:02.782Z,94750.59
2018-12-16T09:07:37.516Z,94752.70
2018-12-16T09:10:10.989Z,94752.44
2018-12-16T09:12:44.781Z,94754.87
2018-12-16T09:15:18.526Z,94751.70
2018-12-16T09:17:50.609Z,94743.61
2018-12-16T09:20:22.716Z,94735.70
2018-12-16T09:22:54.928Z,94735.50
2018-12-16T12:30:43.898Z,94801.00
2018-12-16T12:33:15.928Z,94803.59
2018-12-16T12:35:46.837Z,94806.20
2018-12-16T12:38:17.759Z,94812.20
2018-12-16T12:40:48.691Z,94821.58
2018-12-16T12:43:19.711Z,94821.27
2018-12-16T12:45:52.207Z,94819.44
2018-12-16T12:48:23.293Z,94816.50
2018-12-16T12:50:54.300Z,94820.52
2018-12-16T12:53:25.660Z,94820.36
2018-12-16T12:55:56.896Z,94823.88
2018-12-16T12:58:29.283Z,94827.89
2018-12-16T13:01:00.285Z,94829.31
2018-12-16T13:03:31.316Z,94829.65
2018-12-16T13:06:02.453Z,94822.56
2018-12-16T13:08:34.721Z,94830.61
2018-12-16T13:11:05.999Z,94834.95
2018-12-16T13:13:37.182Z,94838.81
2018-12-16T13:16:08.236Z,94840.44
2018-12-16T13:18:39.469Z,94840.41
2018-12-16T13:21:10.502Z,94842.44
2018-12-16T13:23:41.665Z,94842.76
2018-12-16T14:06:23.023Z,94855.91
2018-12-16T14:08:55.343Z,94865.00
2018-12-16T14:14:20.198Z,94863.14
2018-12-16T14:16:52.329Z,94865.08
2018-12-16T14:19:26.131Z,94865.77
2018-12-16T14:21:58.572Z,94862.30
2018-12-16T14:24:31.040Z,94874.06
2018-12-16T14:27:03.103Z,94872.22
2018-12-16T14:29:35.220Z,94868.45
2018-12-16T14:32:07.776Z,94873.97
2018-12-16T14:34:41.352Z,94879.65
2018-12-16T14:37:13.831Z,94888.52
2018-12-16T14:39:46.091Z,94884.27
2018-12-16T14:42:18.021Z,94880.88
2018-12-16T14:44:50.217Z,94890.22
2018-12-16T14:47:22.378Z,94881.91
2018-12-16T14:49:54.828Z,94884.94
2018-12-16T14:52:26.877Z,94895.50
2018-12-16T14:54:58.862Z,94900.95
2018-12-16T14:57:31.273Z,94902.47
2018-12-16T15:00:03.302Z,94896.84
2018-12-16T15:02:36.367Z,94902.21
2018-12-16T15:05:10.172Z,94899.80
2018-12-16T15:07:42.512Z,94908.47
2018-12-16T15:10:14.975Z,94905.86
2018-12-16T15:12:48.822Z,94916.34
2018-12-16T15:15:22.216Z,94925.90
2018-12-16T15:17:55.704Z,94934.47
2018-12-16T15:20:27.838Z,94941.21
2018-12-16T15:23:00.444Z,94931.55
2018-12-16T15:25:33.741Z,94920.74
2018-12-16T15:28:06.027Z,94918.63
2018-12-16T15:30:38.360Z,94915.17
2018-12-16T15:33:10.748Z,94928.48
2018-12-16T15:35:43.055Z,94942.66
2018-12-16T15:38:15.211Z,94950.11
2018-12-16T15:40:47.386Z,94945.60
2018-12-16T15:43:20.062Z,94950.79
2018-12-16T15:45:52.803Z,94953.05
2018-12-16T15:48:25.157Z,94948.25
2018-12-16T15:50:58.462Z,94936.98
2018-12-16T15:53:31.261Z,94937.39
2018-12-16T15:56:09.237Z,94947.04
2018-12-16T15:58:37.871Z,94951.06
2018-12-16T16:01:10.457Z,94956.13
2018-12-16T16:03:42.764Z,94962.59
2018-12-16T16:06:15.361Z,94961.96
2018-12-16T16:08:47.558Z,94963.73
2018-12-16T16:11:20.010Z,94970.48
2018-12-16T16:13:53.558Z,94973.88
2018-12-16T16:16:26.429Z,94972.00
2018-12-16T16:18:59.256Z,94971.19
2018-12-16T16:21:37.567Z,94966.33
2018-12-16T16:24:12.298Z,94971.20
2018-12-16T16:26:47.201Z,94977.23
2018-12-16T16:29:22.092Z,94968.38
2018-12-16T16:31:56.488Z,94962.79
2018-12-16T16:34:31.697Z,94971.46
2018-12-16T16:37:05.836Z,94980.81
2018-12-16T16:39:41.263Z,94988.52
2018-12-16T16:42:14.981Z,94984.52
2018-12-16T16:44:50.418Z,94982.87
2018-12-16T16:47:24.960Z,94978.72
2018-12-16T16:50:00.737Z,94983.69
2018-12-16T16:52:35.233Z,94982.27
2018-12-16T16:55:09.793Z,94984.39
2018-12-16T16:57:45.096Z,94991.84
2018-12-16T17:00:19.513Z,94999.09
2018-12-16T17:02:53.574Z,95000.85
2018-12-16T17:05:28.506Z,95002.45
2018-12-16T17:08:02.495Z,95012.44
2018-12-16T17:10:37.453Z,95017.31
2018-12-16T17:13:12.051Z,95024.71
2018-12-16T17:15:46.636Z,95021.17
2018-12-16T17:18:20.863Z,95018.55
2018-12-16T17:20:56.618Z,95009.99
2018-12-16T17:23:31.767Z,95004.97
2018-12-16T17:26:08.421Z,95009.37
2018-12-16T17:28:43.432Z,95010.97
2018-12-16T17:31:18.649Z,95014.19
2018-12-16T17:33:53.425Z,95023.71
2018-12-16T17:36:28.142Z,95034.34
2018-12-16T17:39:01.903Z,95039.97
2018-12-16T17:41:37.505Z,95035.11
2018-12-16T17:44:15.831Z,95036.71
2018-12-16T17:46:50.138Z,95039.43
2018-12-16T17:49:23.678Z,95042.69
2018-12-16T17:52:03.686Z,95046.37
2018-12-16T17:54:36.563Z,95046.22
2018-12-16T17:57:10.531Z,95042.34
2018-12-16T17:59:46.307Z,95028.59
2018-12-16T18:02:20.730Z,95019.45
2018-12-16T18:04:53.350Z,95028.33
2018-12-16T18:07:27.391Z,95030.43
2018-12-16T18:10:00.993Z,95033.18
2018-12-16T18:12:36.437Z,95030.28
2018-12-16T18:15:11.590Z,95028.07
2018-12-16T18:17:45.466Z,95029.53
2018-12-16T18:20:21.038Z,95031.03
2018-12-16T18:22:56.692Z,95025.87
2018-12-16T18:25:31.582Z,95029.41
2018-12-16T18:28:05.600Z,95023.79
2018-12-16T18:30:41.136Z,95045.66
2018-12-16T18:33:16.940Z,95043.09
2018-12-16T18:35:50.938Z,95032.65
2018-12-16T18:38:25.959Z,95036.48
2018-12-16T18:40:59.534Z,95032.02
2018-12-16T18:43:35.542Z,95037.91
2018-12-16T18:46:10.584Z,95035.55
2018-12-16T18:48:45.116Z,95033.92
2018-12-16T18:51:20.412Z,95028.89
2018-12-16T18:53:55.122Z,95032.05
2018-12-16T18:56:28.886Z,95026.26
2018-12-16T18:59:03.606Z,95029.54
2018-12-16T19:01:41.808Z,95034.07
2018-12-16T19:04:17.693Z,95036.80
2018-12-16T19:06:53.366Z,95026.32
2018-12-16T19:09:29.075Z,95018.45
2018-12-16T19:12:03.597Z,95018.89
2018-12-16T19:14:37.486Z,95028.25
2018-12-16T19:17:11.618Z,95019.72
2018-12-16T19:19:48.284Z,95023.87
2018-12-16T19:22:23.471Z,95019.70
2018-12-16T19:24:57.157Z,95013.11
2018-12-16T19:27:32.664Z,95004.25
2018-12-16T19:30:06.033Z,95003.45
2018-12-16T19:32:40.278Z,95008.13
2018-12-16T19:35:15.262Z,95006.79
2018-12-16T19:37:48.762Z,95008.91
2018-12-16T19:40:23.604Z,95007.28
2018-12-16T19:42:59.136Z,94998.95
2018-12-16T19:45:34.506Z,95003.73
2018-12-16T19:48:08.661Z,95008.70
2018-12-16T19:50:43.669Z,95018.73
2018-12-16T19:53:18.164Z,95009.67
2018-12-16T19:55:51.314Z,95008.83
2018-12-16T19:58:26.137Z,95005.92
2018-12-16T20:01:02.216Z,94994.99
2018-12-16T20:03:38.775Z,95002.09
2018-12-16T20:06:18.605Z,95002.63
2018-12-16T20:08:52.329Z,94996.84
2018-12-16T20:11:26.826Z,95002.03
2018-12-16T20:14:01.448Z,94994.66
2018-12-16T20:16:35.886Z,94995.94
2018-12-16T20:19:11.372Z,94996.21
2018-12-16T20:21:46.452Z,95006.06
2018-12-16T20:24:22.192Z,95005.58
2018-12-16T20:26:57.178Z,94995.86
2018-12-16T20:29:31.323Z,94997.62
2018-12-16T20:32:06.749Z,94993.61
2018-12-16T20:34:41.119Z,94986.91
2018-12-16T20:37:15.329Z,94986.88
2018-12-16T20:39:48.794Z,94996.57
2018-12-16T20:42:23.939Z,94992.67
2018-12-16T20:44:59.964Z,94995.59
2018-12-16T20:47:35.279Z,95002.20
2018-12-16T20:50:10.390Z,95001.27
2018-12-16T20:52:45.230Z,95007.73
2018-12-16T20:55:18.356Z,95002.44
2018-12-16T20:57:52.025Z,95009.49
2018-12-16T21:00:26.337Z,95007.72
2018-12-16T21:03:00.856Z,95002.09
2018-12-16T21:05:35.579Z,95005.78
2018-12-16T21:08:10.172Z,95017.84
2018-12-16T21:10:44.296Z,95024.74
2018-12-16T21:13:26.122Z,95017.33
2018-12-16T21:16:03.545Z,95016.87
2018-12-16T21:18:37.295Z,95011.04
2018-12-16T21:21:11.044Z,95006.58
2018-12-16T21:23:45.707Z,94995.94
2018-12-16T21:26:20.850Z,94997.19
2018-12-16T21:28:55.111Z,94989.94
2018-12-16T21:31:28.994Z,94989.30
2018-12-16T21:34:03.971Z,94974.95
2018-12-16T21:36:39.267Z,94972.70
2018-12-16T21:39:12.589Z,94980.14
2018-12-16T21:41:47.883Z,94975.78
2018-12-16T21:44:23.917Z,94988.32
2018-12-16T21:46:58.578Z,94976.16
2018-12-16T21:49:33.336Z,94974.68
2018-12-16T21:52:09.227Z,94980.63
2018-12-16T21:54:43.376Z,94982.09
2018-12-16T21:57:17.290Z,94976.88
2018-12-16T21:59:51.145Z,94968.06
2018-12-16T22:02:26.035Z,94972.89
2018-12-16T22:05:01.353Z,94979.66
2018-12-16T22:07:34.326Z,94977.42
2018-12-16T22:10:09.637Z,94980.80
2018-12-16T22:12:44.885Z,94993.67
2018-12-16T22:15:22.026Z,94992.23
2018-12-16T22:17:55.770Z,94983.19
2018-12-16T22:20:29.725Z,94982.70
2018-12-16T22:23:04.369Z,94975.94
2018-12-16T22:25:39.306Z,94977.83
2018-12-16T22:28:14.357Z,94981.13
2018-12-16T22:30:48.336Z,94977.77
2018-12-16T22:33:23.397Z,94980.34
2018-12-16T22:35:57.005Z,94987.14
2018-12-16T22:38:30.642Z,94980.66
2018-12-16T22:41:05.920Z,94971.64
2018-12-16T22:43:40.448Z,94969.98
2018-12-16T22:46:14.973Z,94970.66
2018-12-16T22:48:49.399Z,94976.63
2018-12-16T22:51:24.342Z,94973.27
2018-12-16T22:54:00.246Z,94976.73
2018-12-16T22:56:33.760Z,94975.77
2018-12-16T22:59:07.399Z,94975.77
2018-12-16T23:01:42.414Z,94971.47
2018-12-16T23:04:16.509Z,94966.48
2018-12-16T23:06:50.731Z,94968.11
2018-12-16T23:09:26.189Z,94964.41
2018-12-16T23:11:59.703Z,94965.38
2018-12-16T23:14:32.929Z,94955.22
2018-12-16T23:17:06.393Z,94952.98
2018-12-16T23:19:42.347Z,94954.34
2018-12-16T23:22:17.145Z,94946.14
2018-12-16T23:24:51.197Z,94946.92
2018-12-16T23:27:26.514Z,94945.50
2018-12-16T23:30:01.439Z,94946.32
2018-12-16T23:32:35.467Z,94947.78
2018-12-16T23:35:09.020Z,94948.75
2018-12-16T23:37:43.668Z,94946.80
2018-12-16T23:40:17.534Z,94955.61
2018-12-16T23:42:51.696Z,94949.83
2018-12-16T23:45:26.588Z,94952.06
2018-12-16T23:48:00.637Z,94946.81
2018-12-16T23:50:35.204Z,94951.30
2018-12-16T23:53:10.564Z,94951.83
2018-12-16T23:55:44.687Z,94949.21
2018-12-16T23:58:18.828Z,94937.81
